sensor_id;sensor_type;location;lat;lon;timestamp;P1;durP1;ratioP1;P2;durP2;ratioP2
71969;SDS011;59838;52.152;5.436;2024-03-23T00:52:48;10.73;;;3.70;;
71969;SDS011;59838;52.152;5.436;2024-03-23T00:55:14;10.88;;;3.80;;
71969;SDS011;59838;52.152;5.436;2024-03-23T00:57:39;15.13;;;4.40;;
71969;SDS011;59838;52.152;5.436;2024-03-23T01:00:05;15.20;;;4.05;;
71969;SDS011;59838;52.152;5.436;2024-03-23T01:02:31;12.70;;;4.20;;
71969;SDS011;59838;52.152;5.436;2024-03-23T01:04:57;17.58;;;4.57;;
71969;SDS011;59838;52.152;5.436;2024-03-23T01:07:23;8.88;;;4.28;;
71969;SDS011;59838;52.152;5.436;2024-03-23T01:09:48;22.83;;;4.40;;
71969;SDS011;59838;52.152;5.436;2024-03-23T01:12:14;16.60;;;5.00;;
71969;SDS011;59838;52.152;5.436;2024-03-23T01:14:39;16.77;;;5.03;;
71969;SDS011;59838;52.152;5.436;2024-03-23T01:17:05;11.27;;;3.13;;
71969;SDS011;59838;52.152;5.436;2024-03-23T01:19:30;16.40;;;4.67;;
71969;SDS011;59838;52.152;5.436;2024-03-23T01:21:56;10.97;;;3.87;;
71969;SDS011;59838;52.152;5.436;2024-03-23T01:24:21;15.70;;;4.28;;
71969;SDS011;59838;52.152;5.436;2024-03-23T01:26:47;19.70;;;5.03;;
71969;SDS011;59838;52.152;5.436;2024-03-23T01:29:12;14.57;;;4.30;;
71969;SDS011;59838;52.152;5.436;2024-03-23T01:31:38;12.98;;;4.57;;
71969;SDS011;59838;52.152;5.436;2024-03-23T01:34:04;37.80;;;6.40;;
71969;SDS011;59838;52.152;5.436;2024-03-23T01:36:29;17.77;;;4.97;;
71969;SDS011;59838;52.152;5.436;2024-03-23T01:38:55;11.07;;;3.58;;
71969;SDS011;59838;52.152;5.436;2024-03-23T01:41:20;14.93;;;3.87;;
71969;SDS011;59838;52.152;5.436;2024-03-23T01:43:46;13.52;;;4.65;;
71969;SDS011;59838;52.152;5.436;2024-03-23T01:46:12;12.47;;;3.87;;
71969;SDS011;59838;52.152;5.436;2024-03-23T01:48:38;18.27;;;4.13;;
71969;SDS011;59838;52.152;5.436;2024-03-23T01:51:04;9.03;;;3.83;;
71969;SDS011;59838;52.152;5.436;2024-03-23T01:53:30;19.05;;;4.90;;
71969;SDS011;59838;52.152;5.436;2024-03-23T01:55:55;10.95;;;3.90;;
71969;SDS011;59838;52.152;5.436;2024-03-23T01:58:22;13.67;;;3.97;;
71969;SDS011;59838;52.152;5.436;2024-03-23T02:00:48;14.20;;;3.70;;
71969;SDS011;59838;52.152;5.436;2024-03-23T02:03:23;5.53;;;3.23;;
71969;SDS011;59838;52.152;5.436;2024-03-23T02:05:52;11.95;;;4.00;;
71969;SDS011;59838;52.152;5.436;2024-03-23T02:08:20;14.10;;;4.18;;
71969;SDS011;59838;52.152;5.436;2024-03-23T02:10:48;8.80;;;3.53;;
71969;SDS011;59838;52.152;5.436;2024-03-23T02:13:15;16.42;;;4.60;;
71969;SDS011;59838;52.152;5.436;2024-03-23T02:15:42;11.77;;;3.97;;
71969;SDS011;59838;52.152;5.436;2024-03-23T02:18:08;11.23;;;4.10;;
71969;SDS011;59838;52.152;5.436;2024-03-23T02:20:34;15.30;;;3.67;;
71969;SDS011;59838;52.152;5.436;2024-03-23T02:23:00;12.73;;;3.45;;
71969;SDS011;59838;52.152;5.436;2024-03-23T02:25:26;10.13;;;3.50;;
71969;SDS011;59838;52.152;5.436;2024-03-23T02:27:52;8.27;;;2.97;;
71969;SDS011;59838;52.152;5.436;2024-03-23T02:30:19;11.70;;;4.40;;
71969;SDS011;59838;52.152;5.436;2024-03-23T02:32:45;13.23;;;4.00;;
71969;SDS011;59838;52.152;5.436;2024-03-23T02:35:11;12.90;;;3.95;;
71969;SDS011;59838;52.152;5.436;2024-03-23T02:37:37;17.75;;;3.58;;
71969;SDS011;59838;52.152;5.436;2024-03-23T02:40:02;9.27;;;3.13;;
71969;SDS011;59838;52.152;5.436;2024-03-23T02:42:28;13.77;;;3.47;;
71969;SDS011;59838;52.152;5.436;2024-03-23T02:44:53;12.60;;;3.97;;
71969;SDS011;59838;52.152;5.436;2024-03-23T02:47:19;11.33;;;2.57;;
71969;SDS011;59838;52.152;5.436;2024-03-23T02:49:45;7.28;;;2.70;;
71969;SDS011;59838;52.152;5.436;2024-03-23T02:52:10;14.23;;;2.60;;
71969;SDS011;59838;52.152;5.436;2024-03-23T02:54:36;12.93;;;3.00;;
71969;SDS011;59838;52.152;5.436;2024-03-23T02:57:02;14.95;;;2.83;;
71969;SDS011;59838;52.152;5.436;2024-03-23T02:59:27;10.23;;;2.25;;
71969;SDS011;59838;52.152;5.436;2024-03-23T03:01:53;9.38;;;2.35;;
71969;SDS011;59838;52.152;5.436;2024-03-23T03:04:18;8.33;;;2.00;;
71969;SDS011;59838;52.152;5.436;2024-03-23T03:06:47;8.93;;;1.95;;
71969;SDS011;59838;52.152;5.436;2024-03-23T03:09:13;12.70;;;1.57;;
71969;SDS011;59838;52.152;5.436;2024-03-23T03:11:38;12.35;;;1.75;;
71969;SDS011;59838;52.152;5.436;2024-03-23T03:14:04;8.53;;;1.57;;
71969;SDS011;59838;52.152;5.436;2024-03-23T03:16:32;9.18;;;1.60;;
71969;SDS011;59838;52.152;5.436;2024-03-23T03:18:58;18.67;;;2.13;;
71969;SDS011;59838;52.152;5.436;2024-03-23T03:21:23;11.77;;;1.58;;
71969;SDS011;59838;52.152;5.436;2024-03-23T03:23:49;7.77;;;1.67;;
71969;SDS011;59838;52.152;5.436;2024-03-23T03:26:16;8.50;;;1.98;;
71969;SDS011;59838;52.152;5.436;2024-03-23T03:28:42;4.05;;;1.25;;
71969;SDS011;59838;52.152;5.436;2024-03-23T03:31:09;3.45;;;1.08;;
71969;SDS011;59838;52.152;5.436;2024-03-23T03:33:35;11.30;;;1.60;;
71969;SDS011;59838;52.152;5.436;2024-03-23T03:36:00;11.97;;;1.87;;
71969;SDS011;59838;52.152;5.436;2024-03-23T03:38:26;10.98;;;1.77;;
71969;SDS011;59838;52.152;5.436;2024-03-23T03:40:51;8.23;;;1.53;;
71969;SDS011;59838;52.152;5.436;2024-03-23T03:43:18;7.72;;;1.65;;
71969;SDS011;59838;52.152;5.436;2024-03-23T03:45:51;11.53;;;1.63;;
71969;SDS011;59838;52.152;5.436;2024-03-23T03:48:17;4.72;;;1.48;;
71969;SDS011;59838;52.152;5.436;2024-03-23T03:50:42;3.43;;;1.07;;
71969;SDS011;59838;52.152;5.436;2024-03-23T03:53:08;11.90;;;1.70;;
71969;SDS011;59838;52.152;5.436;2024-03-23T03:55:33;12.00;;;1.48;;
71969;SDS011;59838;52.152;5.436;2024-03-23T03:57:59;3.43;;;1.17;;
71969;SDS011;59838;52.152;5.436;2024-03-23T04:00:24;6.70;;;1.90;;
71969;SDS011;59838;52.152;5.436;2024-03-23T04:02:50;13.50;;;2.75;;
71969;SDS011;59838;52.152;5.436;2024-03-23T04:05:16;6.60;;;1.77;;
71969;SDS011;59838;52.152;5.436;2024-03-23T04:07:41;6.68;;;1.33;;
71969;SDS011;59838;52.152;5.436;2024-03-23T04:10:07;7.90;;;1.77;;
71969;SDS011;59838;52.152;5.436;2024-03-23T04:12:36;9.50;;;1.92;;
71969;SDS011;59838;52.152;5.436;2024-03-23T04:15:02;13.30;;;1.58;;
71969;SDS011;59838;52.152;5.436;2024-03-23T04:17:30;7.67;;;1.27;;
71969;SDS011;59838;52.152;5.436;2024-03-23T04:19:59;6.70;;;1.70;;
71969;SDS011;59838;52.152;5.436;2024-03-23T04:22:26;7.30;;;1.73;;
71969;SDS011;59838;52.152;5.436;2024-03-23T04:24:56;10.25;;;1.58;;
71969;SDS011;59838;52.152;5.436;2024-03-23T04:27:25;11.57;;;1.58;;
71969;SDS011;59838;52.152;5.436;2024-03-23T04:29:51;3.28;;;1.50;;
71969;SDS011;59838;52.152;5.436;2024-03-23T04:32:18;9.52;;;2.42;;
71969;SDS011;59838;52.152;5.436;2024-03-23T04:34:44;6.47;;;1.77;;
71969;SDS011;59838;52.152;5.436;2024-03-23T04:37:10;7.85;;;2.10;;
71969;SDS011;59838;52.152;5.436;2024-03-23T04:39:36;8.13;;;2.30;;
71969;SDS011;59838;52.152;5.436;2024-03-23T04:42:02;9.20;;;2.43;;
71969;SDS011;59838;52.152;5.436;2024-03-23T04:44:28;10.60;;;2.40;;
71969;SDS011;59838;52.152;5.436;2024-03-23T04:46:54;10.75;;;2.10;;
71969;SDS011;59838;52.152;5.436;2024-03-23T04:49:20;7.20;;;2.20;;
71969;SDS011;59838;52.152;5.436;2024-03-23T04:51:45;9.43;;;1.70;;
71969;SDS011;59838;52.152;5.436;2024-03-23T04:54:11;9.13;;;2.43;;
71969;SDS011;59838;52.152;5.436;2024-03-23T04:56:37;8.15;;;2.83;;
71969;SDS011;59838;52.152;5.436;2024-03-23T04:59:03;8.27;;;2.25;;
71969;SDS011;59838;52.152;5.436;2024-03-23T05:01:30;7.25;;;1.85;;
71969;SDS011;59838;52.152;5.436;2024-03-23T05:03:59;6.00;;;1.77;;
71969;SDS011;59838;52.152;5.436;2024-03-23T05:06:25;10.80;;;1.73;;
71969;SDS011;59838;52.152;5.436;2024-03-23T05:08:51;3.97;;;2.10;;
71969;SDS011;59838;52.152;5.436;2024-03-23T05:11:16;8.60;;;1.63;;
71969;SDS011;59838;52.152;5.436;2024-03-23T05:13:43;2.97;;;1.60;;
71969;SDS011;59838;52.152;5.436;2024-03-23T05:16:08;8.85;;;2.05;;
71969;SDS011;59838;52.152;5.436;2024-03-23T05:18:34;5.97;;;1.70;;
71969;SDS011;59838;52.152;5.436;2024-03-23T05:21:00;4.70;;;1.58;;
71969;SDS011;59838;52.152;5.436;2024-03-23T05:23:26;8.27;;;2.33;;
71969;SDS011;59838;52.152;5.436;2024-03-23T05:25:51;7.97;;;1.10;;
71969;SDS011;59838;52.152;5.436;2024-03-23T05:28:18;6.78;;;1.33;;
71969;SDS011;59838;52.152;5.436;2024-03-23T05:30:49;7.30;;;1.20;;
71969;SDS011;59838;52.152;5.436;2024-03-23T05:33:19;7.18;;;1.10;;
71969;SDS011;59838;52.152;5.436;2024-03-23T05:35:45;7.25;;;0.80;;
71969;SDS011;59838;52.152;5.436;2024-03-23T05:38:15;6.18;;;1.20;;
71969;SDS011;59838;52.152;5.436;2024-03-23T05:40:41;8.50;;;1.10;;
71969;SDS011;59838;52.152;5.436;2024-03-23T05:43:06;5.87;;;1.33;;
71969;SDS011;59838;52.152;5.436;2024-03-23T05:45:32;7.17;;;1.47;;
71969;SDS011;59838;52.152;5.436;2024-03-23T05:47:58;14.40;;;1.17;;
71969;SDS011;59838;52.152;5.436;2024-03-23T05:50:24;9.23;;;1.37;;
71969;SDS011;59838;52.152;5.436;2024-03-23T05:52:49;3.80;;;0.60;;
71969;SDS011;59838;52.152;5.436;2024-03-23T05:55:15;4.93;;;1.97;;
71969;SDS011;59838;52.152;5.436;2024-03-23T05:57:41;8.93;;;1.30;;
71969;SDS011;59838;52.152;5.436;2024-03-23T06:00:06;4.53;;;1.10;;
71969;SDS011;59838;52.152;5.436;2024-03-23T06:02:44;8.20;;;1.48;;
71969;SDS011;59838;52.152;5.436;2024-03-23T06:05:10;8.90;;;1.30;;
71969;SDS011;59838;52.152;5.436;2024-03-23T06:07:37;8.10;;;1.25;;
71969;SDS011;59838;52.152;5.436;2024-03-23T06:10:03;9.27;;;0.80;;
71969;SDS011;59838;52.152;5.436;2024-03-23T06:12:29;4.57;;;0.98;;
71969;SDS011;59838;52.152;5.436;2024-03-23T06:14:54;3.13;;;1.07;;
71969;SDS011;59838;52.152;5.436;2024-03-23T06:17:20;4.47;;;0.77;;
71969;SDS011;59838;52.152;5.436;2024-03-23T06:19:46;6.10;;;0.57;;
71969;SDS011;59838;52.152;5.436;2024-03-23T06:22:12;4.05;;;0.73;;
71969;SDS011;59838;52.152;5.436;2024-03-23T06:24:37;3.63;;;1.00;;
71969;SDS011;59838;52.152;5.436;2024-03-23T06:27:03;3.03;;;0.40;;
71969;SDS011;59838;52.152;5.436;2024-03-23T06:29:29;6.13;;;0.55;;
71969;SDS011;59838;52.152;5.436;2024-03-23T06:31:55;5.00;;;0.75;;
71969;SDS011;59838;52.152;5.436;2024-03-23T06:34:21;4.93;;;0.60;;
71969;SDS011;59838;52.152;5.436;2024-03-23T06:36:48;1.85;;;0.70;;
71969;SDS011;59838;52.152;5.436;2024-03-23T06:39:14;7.75;;;0.95;;
71969;SDS011;59838;52.152;5.436;2024-03-23T06:41:44;7.70;;;1.10;;
71969;SDS011;59838;52.152;5.436;2024-03-23T06:44:18;2.07;;;0.37;;
71969;SDS011;59838;52.152;5.436;2024-03-23T06:46:44;3.55;;;0.68;;
71969;SDS011;59838;52.152;5.436;2024-03-23T06:49:10;4.88;;;1.02;;
71969;SDS011;59838;52.152;5.436;2024-03-23T06:51:35;5.18;;;0.60;;
71969;SDS011;59838;52.152;5.436;2024-03-23T06:54:02;4.10;;;1.07;;
71969;SDS011;59838;52.152;5.436;2024-03-23T06:56:29;4.25;;;0.70;;
71969;SDS011;59838;52.152;5.436;2024-03-23T06:58:54;7.88;;;1.10;;
71969;SDS011;59838;52.152;5.436;2024-03-23T07:01:20;6.23;;;0.50;;
71969;SDS011;59838;52.152;5.436;2024-03-23T07:03:46;7.88;;;1.15;;
71969;SDS011;59838;52.152;5.436;2024-03-23T07:06:12;3.73;;;0.77;;
71969;SDS011;59838;52.152;5.436;2024-03-23T07:08:37;5.65;;;0.63;;
71969;SDS011;59838;52.152;5.436;2024-03-23T07:11:03;4.37;;;0.50;;
71969;SDS011;59838;52.152;5.436;2024-03-23T07:13:28;4.27;;;0.90;;
71969;SDS011;59838;52.152;5.436;2024-03-23T07:15:55;6.70;;;0.60;;
71969;SDS011;59838;52.152;5.436;2024-03-23T07:18:22;9.88;;;0.70;;
71969;SDS011;59838;52.152;5.436;2024-03-23T07:20:52;6.13;;;1.00;;
71969;SDS011;59838;52.152;5.436;2024-03-23T07:23:21;6.85;;;0.77;;
71969;SDS011;59838;52.152;5.436;2024-03-23T07:25:57;8.25;;;0.80;;
71969;SDS011;59838;52.152;5.436;2024-03-23T07:28:24;7.97;;;0.80;;
71969;SDS011;59838;52.152;5.436;2024-03-23T07:31:05;7.07;;;1.07;;
71969;SDS011;59838;52.152;5.436;2024-03-23T07:33:34;9.75;;;1.10;;
71969;SDS011;59838;52.152;5.436;2024-03-23T07:36:00;5.68;;;1.38;;
71969;SDS011;59838;52.152;5.436;2024-03-23T07:38:27;5.88;;;0.95;;
71969;SDS011;59838;52.152;5.436;2024-03-23T07:41:03;9.53;;;1.70;;
71969;SDS011;59838;52.152;5.436;2024-03-23T07:43:32;6.05;;;1.27;;
71969;SDS011;59838;52.152;5.436;2024-03-23T07:45:58;5.85;;;0.63;;
71969;SDS011;59838;52.152;5.436;2024-03-23T07:48:24;2.40;;;0.70;;
71969;SDS011;59838;52.152;5.436;2024-03-23T07:53:22;6.03;;;0.93;;
71969;SDS011;59838;52.152;5.436;2024-03-23T07:55:54;6.93;;;2.27;;
71969;SDS011;59838;52.152;5.436;2024-03-23T07:58:20;9.30;;;2.65;;
71969;SDS011;59838;52.152;5.436;2024-03-23T08:00:46;10.05;;;6.18;;
71969;SDS011;59838;52.152;5.436;2024-03-23T08:03:11;8.40;;;0.80;;
71969;SDS011;59838;52.152;5.436;2024-03-23T08:05:37;2.87;;;0.60;;
71969;SDS011;59838;52.152;5.436;2024-03-23T08:08:03;4.97;;;0.70;;
71969;SDS011;59838;52.152;5.436;2024-03-23T08:10:28;4.63;;;2.25;;
71969;SDS011;59838;52.152;5.436;2024-03-23T08:12:54;7.63;;;1.63;;
71969;SDS011;59838;52.152;5.436;2024-03-23T08:15:19;10.27;;;1.75;;
71969;SDS011;59838;52.152;5.436;2024-03-23T08:17:45;15.13;;;5.70;;
71969;SDS011;59838;52.152;5.436;2024-03-23T08:20:11;20.33;;;10.23;;
71969;SDS011;59838;52.152;5.436;2024-03-23T08:22:36;10.82;;;5.25;;
71969;SDS011;59838;52.152;5.436;2024-03-23T08:25:02;9.93;;;4.50;;
71969;SDS011;59838;52.152;5.436;2024-03-23T08:27:46;6.38;;;1.38;;
71969;SDS011;59838;52.152;5.436;2024-03-23T08:30:11;12.35;;;2.72;;
71969;SDS011;59838;52.152;5.436;2024-03-23T08:32:37;6.25;;;1.40;;
71969;SDS011;59838;52.152;5.436;2024-03-23T08:35:03;5.53;;;0.63;;
71969;SDS011;59838;52.152;5.436;2024-03-23T08:37:29;7.20;;;1.05;;
71969;SDS011;59838;52.152;5.436;2024-03-23T08:39:54;6.87;;;0.57;;
71969;SDS011;59838;52.152;5.436;2024-03-23T08:42:20;3.40;;;0.32;;
71969;SDS011;59838;52.152;5.436;2024-03-23T08:44:46;6.23;;;0.63;;
71969;SDS011;59838;52.152;5.436;2024-03-23T08:47:17;4.22;;;0.85;;
71969;SDS011;59838;52.152;5.436;2024-03-23T08:49:44;5.32;;;1.15;;
71969;SDS011;59838;52.152;5.436;2024-03-23T08:52:09;3.55;;;0.55;;
71969;SDS011;59838;52.152;5.436;2024-03-23T08:54:35;5.07;;;0.60;;
71969;SDS011;59838;52.152;5.436;2024-03-23T08:57:00;9.43;;;0.90;;
71969;SDS011;59838;52.152;5.436;2024-03-23T08:59:26;8.30;;;0.57;;
71969;SDS011;59838;52.152;5.436;2024-03-23T09:01:52;7.23;;;0.50;;
71969;SDS011;59838;52.152;5.436;2024-03-23T09:04:18;4.85;;;0.40;;
71969;SDS011;59838;52.152;5.436;2024-03-23T09:06:43;5.97;;;0.30;;
71969;SDS011;59838;52.152;5.436;2024-03-23T09:09:09;9.87;;;0.93;;
71969;SDS011;59838;52.152;5.436;2024-03-23T09:11:34;6.53;;;0.40;;
71969;SDS011;59838;52.152;5.436;2024-03-23T09:14:00;2.93;;;0.27;;
71969;SDS011;59838;52.152;5.436;2024-03-23T09:16:26;4.53;;;0.32;;
71969;SDS011;59838;52.152;5.436;2024-03-23T09:18:51;2.47;;;0.47;;
71969;SDS011;59838;52.152;5.436;2024-03-23T09:21:17;3.28;;;0.40;;
71969;SDS011;59838;52.152;5.436;2024-03-23T09:23:43;3.63;;;0.20;;
71969;SDS011;59838;52.152;5.436;2024-03-23T09:26:09;4.40;;;0.45;;
71969;SDS011;59838;52.152;5.436;2024-03-23T09:28:35;4.50;;;0.40;;
71969;SDS011;59838;52.152;5.436;2024-03-23T09:31:04;4.03;;;0.30;;
71969;SDS011;59838;52.152;5.436;2024-03-23T09:33:31;2.83;;;0.38;;
71969;SDS011;59838;52.152;5.436;2024-03-23T09:35:56;6.87;;;0.50;;
71969;SDS011;59838;52.152;5.436;2024-03-23T09:38:25;4.68;;;0.35;;
71969;SDS011;59838;52.152;5.436;2024-03-23T09:40:52;5.32;;;0.40;;
71969;SDS011;59838;52.152;5.436;2024-03-23T09:43:19;4.03;;;1.08;;
71969;SDS011;59838;52.152;5.436;2024-03-23T09:45:45;3.85;;;0.80;;
71969;SDS011;59838;52.152;5.436;2024-03-23T09:48:11;3.40;;;0.47;;
71969;SDS011;59838;52.152;5.436;2024-03-23T09:50:41;5.47;;;0.90;;
71969;SDS011;59838;52.152;5.436;2024-03-23T09:53:09;2.58;;;0.35;;
71969;SDS011;59838;52.152;5.436;2024-03-23T09:55:36;4.13;;;0.50;;
71969;SDS011;59838;52.152;5.436;2024-03-23T09:58:03;2.80;;;0.30;;
71969;SDS011;59838;52.152;5.436;2024-03-23T10:00:30;4.68;;;0.50;;
71969;SDS011;59838;52.152;5.436;2024-03-23T10:02:59;8.27;;;0.85;;
71969;SDS011;59838;52.152;5.436;2024-03-23T10:05:27;7.40;;;1.02;;
71969;SDS011;59838;52.152;5.436;2024-03-23T10:07:54;6.72;;;0.40;;
71969;SDS011;59838;52.152;5.436;2024-03-23T10:10:20;4.73;;;0.60;;
71969;SDS011;59838;52.152;5.436;2024-03-23T10:12:49;3.88;;;0.45;;
71969;SDS011;59838;52.152;5.436;2024-03-23T10:15:18;8.57;;;1.15;;
71969;SDS011;59838;52.152;5.436;2024-03-23T10:17:46;6.03;;;0.67;;
71969;SDS011;59838;52.152;5.436;2024-03-23T10:20:12;5.88;;;0.93;;
71969;SDS011;59838;52.152;5.436;2024-03-23T10:22:38;5.07;;;0.47;;
71969;SDS011;59838;52.152;5.436;2024-03-23T10:25:08;7.35;;;0.90;;
71969;SDS011;59838;52.152;5.436;2024-03-23T10:27:34;7.45;;;0.88;;
71969;SDS011;59838;52.152;5.436;2024-03-23T10:30:10;3.13;;;0.43;;
71969;SDS011;59838;52.152;5.436;2024-03-23T10:32:37;6.50;;;0.93;;
71969;SDS011;59838;52.152;5.436;2024-03-23T10:37:47;8.18;;;0.82;;
71969;SDS011;59838;52.152;5.436;2024-03-23T10:40:14;4.47;;;0.30;;
71969;SDS011;59838;52.152;5.436;2024-03-23T10:42:40;4.25;;;0.60;;
71969;SDS011;59838;52.152;5.436;2024-03-23T10:45:06;14.05;;;0.88;;
71969;SDS011;59838;52.152;5.436;2024-03-23T10:47:34;5.50;;;0.43;;
71969;SDS011;59838;52.152;5.436;2024-03-23T10:50:01;3.33;;;0.20;;
71969;SDS011;59838;52.152;5.436;2024-03-23T10:52:26;6.10;;;0.52;;
71969;SDS011;59838;52.152;5.436;2024-03-23T10:54:52;6.65;;;0.50;;
71969;SDS011;59838;52.152;5.436;2024-03-23T10:57:19;3.27;;;0.77;;
71969;SDS011;59838;52.152;5.436;2024-03-23T10:59:49;5.18;;;0.75;;
71969;SDS011;59838;52.152;5.436;2024-03-23T11:02:18;2.40;;;0.47;;
71969;SDS011;59838;52.152;5.436;2024-03-23T11:04:45;7.70;;;0.52;;
71969;SDS011;59838;52.152;5.436;2024-03-23T11:07:31;4.78;;;0.63;;
71969;SDS011;59838;52.152;5.436;2024-03-23T11:09:59;2.78;;;0.40;;
71969;SDS011;59838;52.152;5.436;2024-03-23T11:12:29;3.47;;;0.30;;
71969;SDS011;59838;52.152;5.436;2024-03-23T11:15:04;2.67;;;0.20;;
71969;SDS011;59838;52.152;5.436;2024-03-23T11:17:30;3.25;;;0.93;;
71969;SDS011;59838;52.152;5.436;2024-03-23T11:25:23;4.90;;;0.63;;
71969;SDS011;59838;52.152;5.436;2024-03-23T11:27:50;2.88;;;0.40;;
71969;SDS011;59838;52.152;5.436;2024-03-23T11:32:46;9.35;;;0.65;;
71969;SDS011;59838;52.152;5.436;2024-03-23T11:38:08;5.90;;;0.40;;
71969;SDS011;59838;52.152;5.436;2024-03-23T11:40:43;8.32;;;0.30;;
71969;SDS011;59838;52.152;5.436;2024-03-23T11:43:12;4.30;;;1.00;;
71969;SDS011;59838;52.152;5.436;2024-03-23T11:48:15;6.07;;;0.50;;
71969;SDS011;59838;52.152;5.436;2024-03-23T11:50:49;7.53;;;0.83;;
71969;SDS011;59838;52.152;5.436;2024-03-23T11:53:17;2.00;;;0.55;;
71969;SDS011;59838;52.152;5.436;2024-03-23T11:55:47;3.85;;;0.70;;
71969;SDS011;59838;52.152;5.436;2024-03-23T11:58:23;7.20;;;0.70;;
71969;SDS011;59838;52.152;5.436;2024-03-23T12:00:50;8.68;;;0.45;;
71969;SDS011;59838;52.152;5.436;2024-03-23T12:03:17;3.77;;;0.57;;
71969;SDS011;59838;52.152;5.436;2024-03-23T12:05:47;3.58;;;0.55;;
71969;SDS011;59838;52.152;5.436;2024-03-23T12:08:23;5.28;;;0.77;;
71969;SDS011;59838;52.152;5.436;2024-03-23T12:11:08;5.35;;;0.30;;
71969;SDS011;59838;52.152;5.436;2024-03-23T12:13:36;2.97;;;0.20;;
71969;SDS011;59838;52.152;5.436;2024-03-23T12:16:13;4.30;;;0.30;;
71969;SDS011;59838;52.152;5.436;2024-03-23T12:18:45;4.40;;;0.40;;
71969;SDS011;59838;52.152;5.436;2024-03-23T12:21:12;3.58;;;0.55;;
71969;SDS011;59838;52.152;5.436;2024-03-23T12:23:41;4.87;;;0.20;;
71969;SDS011;59838;52.152;5.436;2024-03-23T12:26:08;4.50;;;0.43;;
71969;SDS011;59838;52.152;5.436;2024-03-23T12:28:33;4.60;;;0.32;;
71969;SDS011;59838;52.152;5.436;2024-03-23T12:30:59;3.58;;;0.55;;
71969;SDS011;59838;52.152;5.436;2024-03-23T12:33:25;6.45;;;0.60;;
71969;SDS011;59838;52.152;5.436;2024-03-23T12:35:51;5.07;;;0.63;;
71969;SDS011;59838;52.152;5.436;2024-03-23T12:38:17;4.03;;;0.40;;
71969;SDS011;59838;52.152;5.436;2024-03-23T12:40:46;2.85;;;0.40;;
71969;SDS011;59838;52.152;5.436;2024-03-23T12:43:13;5.30;;;0.60;;
71969;SDS011;59838;52.152;5.436;2024-03-23T12:45:39;4.22;;;0.50;;
71969;SDS011;59838;52.152;5.436;2024-03-23T12:48:05;5.75;;;0.50;;
71969;SDS011;59838;52.152;5.436;2024-03-23T12:50:31;6.97;;;0.50;;
71969;SDS011;59838;52.152;5.436;2024-03-23T12:52:56;3.38;;;0.40;;
71969;SDS011;59838;52.152;5.436;2024-03-23T12:55:22;4.93;;;0.40;;
71969;SDS011;59838;52.152;5.436;2024-03-23T12:57:47;3.90;;;0.40;;
71969;SDS011;59838;52.152;5.436;2024-03-23T13:00:13;3.20;;;0.57;;
71969;SDS011;59838;52.152;5.436;2024-03-23T13:02:40;7.37;;;0.40;;
71969;SDS011;59838;52.152;5.436;2024-03-23T13:05:06;1.95;;;0.63;;
71969;SDS011;59838;52.152;5.436;2024-03-23T13:07:34;3.00;;;0.40;;
71969;SDS011;59838;52.152;5.436;2024-03-23T13:10:00;4.30;;;0.30;;
71969;SDS011;59838;52.152;5.436;2024-03-23T13:12:26;7.67;;;0.53;;
71969;SDS011;59838;52.152;5.436;2024-03-23T13:14:51;1.97;;;0.20;;
71969;SDS011;59838;52.152;5.436;2024-03-23T13:17:17;4.45;;;0.30;;
71969;SDS011;59838;52.152;5.436;2024-03-23T13:19:42;8.82;;;0.68;;
71969;SDS011;59838;52.152;5.436;2024-03-23T13:22:08;3.07;;;0.30;;
71969;SDS011;59838;52.152;5.436;2024-03-23T13:24:36;3.13;;;0.22;;
71969;SDS011;59838;52.152;5.436;2024-03-23T13:27:02;7.45;;;0.50;;
71969;SDS011;59838;52.152;5.436;2024-03-23T13:29:29;1.85;;;0.20;;
71969;SDS011;59838;52.152;5.436;2024-03-23T13:31:55;1.02;;;0.20;;
71969;SDS011;59838;52.152;5.436;2024-03-23T13:34:20;2.57;;;0.10;;
71969;SDS011;59838;52.152;5.436;2024-03-23T13:36:46;1.50;;;0.20;;
71969;SDS011;59838;52.152;5.436;2024-03-23T13:39:13;0.40;;;0.15;;
71969;SDS011;59838;52.152;5.436;2024-03-23T13:41:43;0.93;;;0.10;;
71969;SDS011;59838;52.152;5.436;2024-03-23T13:44:09;0.70;;;0.10;;
71969;SDS011;59838;52.152;5.436;2024-03-23T13:46:37;0.28;;;0.10;;
71969;SDS011;59838;52.152;5.436;2024-03-23T13:49:03;2.28;;;0.40;;
71969;SDS011;59838;52.152;5.436;2024-03-23T13:51:29;1.15;;;0.55;;
71969;SDS011;59838;52.152;5.436;2024-03-23T13:53:55;5.65;;;0.30;;
71969;SDS011;59838;52.152;5.436;2024-03-23T13:56:22;2.47;;;0.20;;
71969;SDS011;59838;52.152;5.436;2024-03-23T13:58:50;5.72;;;0.30;;
71969;SDS011;59838;52.152;5.436;2024-03-23T14:01:16;2.03;;;0.15;;
71969;SDS011;59838;52.152;5.436;2024-03-23T14:03:43;2.83;;;0.60;;
71969;SDS011;59838;52.152;5.436;2024-03-23T14:06:09;2.20;;;0.40;;
71969;SDS011;59838;52.152;5.436;2024-03-23T14:08:36;2.90;;;0.30;;
71969;SDS011;59838;52.152;5.436;2024-03-23T14:11:05;7.25;;;0.40;;
71969;SDS011;59838;52.152;5.436;2024-03-23T14:13:31;2.67;;;0.25;;
71969;SDS011;59838;52.152;5.436;2024-03-23T14:15:57;3.53;;;0.30;;
71969;SDS011;59838;52.152;5.436;2024-03-23T14:18:24;6.13;;;0.50;;
71969;SDS011;59838;52.152;5.436;2024-03-23T14:20:51;2.97;;;0.60;;
71969;SDS011;59838;52.152;5.436;2024-03-23T14:23:18;5.05;;;0.65;;
71969;SDS011;59838;52.152;5.436;2024-03-23T14:25:44;3.33;;;0.50;;
71969;SDS011;59838;52.152;5.436;2024-03-23T14:28:10;3.88;;;0.73;;
71969;SDS011;59838;52.152;5.436;2024-03-23T14:30:42;4.97;;;0.57;;
71969;SDS011;59838;52.152;5.436;2024-03-23T14:33:08;3.50;;;0.45;;
71969;SDS011;59838;52.152;5.436;2024-03-23T14:35:34;4.85;;;0.30;;
71969;SDS011;59838;52.152;5.436;2024-03-23T14:38:00;5.85;;;0.35;;
71969;SDS011;59838;52.152;5.436;2024-03-23T14:40:27;7.65;;;0.30;;
71969;SDS011;59838;52.152;5.436;2024-03-23T14:42:53;3.40;;;0.30;;
71969;SDS011;59838;52.152;5.436;2024-03-23T14:45:22;8.32;;;0.30;;
71969;SDS011;59838;52.152;5.436;2024-03-23T14:47:50;3.00;;;0.50;;
71969;SDS011;59838;52.152;5.436;2024-03-23T14:50:18;4.30;;;0.32;;
71969;SDS011;59838;52.152;5.436;2024-03-23T14:52:47;2.70;;;0.40;;
71969;SDS011;59838;52.152;5.436;2024-03-23T14:55:13;2.20;;;0.40;;
71969;SDS011;59838;52.152;5.436;2024-03-23T14:57:38;3.00;;;0.35;;
71969;SDS011;59838;52.152;5.436;2024-03-23T15:00:08;5.75;;;0.30;;
71969;SDS011;59838;52.152;5.436;2024-03-23T15:02:36;10.53;;;0.77;;
71969;SDS011;59838;52.152;5.436;2024-03-23T15:05:02;3.35;;;0.47;;
71969;SDS011;59838;52.152;5.436;2024-03-23T15:07:32;2.97;;;0.40;;
71969;SDS011;59838;52.152;5.436;2024-03-23T15:09:58;3.40;;;0.32;;
71969;SDS011;59838;52.152;5.436;2024-03-23T15:12:24;1.67;;;0.40;;
71969;SDS011;59838;52.152;5.436;2024-03-23T15:14:49;5.88;;;0.50;;
71969;SDS011;59838;52.152;5.436;2024-03-23T15:17:15;5.77;;;0.40;;
71969;SDS011;59838;52.152;5.436;2024-03-23T15:19:40;5.87;;;0.57;;
71969;SDS011;59838;52.152;5.436;2024-03-23T15:22:08;2.65;;;0.32;;
71969;SDS011;59838;52.152;5.436;2024-03-23T15:24:35;0.98;;;0.10;;
71969;SDS011;59838;52.152;5.436;2024-03-23T15:27:02;3.50;;;0.32;;
71969;SDS011;59838;52.152;5.436;2024-03-23T15:29:28;3.30;;;0.52;;
71969;SDS011;59838;52.152;5.436;2024-03-23T15:31:54;0.80;;;0.20;;
71969;SDS011;59838;52.152;5.436;2024-03-23T15:34:19;7.40;;;0.40;;
71969;SDS011;59838;52.152;5.436;2024-03-23T15:36:48;2.03;;;0.40;;
71969;SDS011;59838;52.152;5.436;2024-03-23T15:39:16;2.40;;;0.20;;
71969;SDS011;59838;52.152;5.436;2024-03-23T15:41:45;4.50;;;0.30;;
71969;SDS011;59838;52.152;5.436;2024-03-23T15:44:11;3.88;;;0.30;;
71969;SDS011;59838;52.152;5.436;2024-03-23T15:46:37;2.40;;;0.37;;
71969;SDS011;59838;52.152;5.436;2024-03-23T15:49:02;2.95;;;0.20;;
71969;SDS011;59838;52.152;5.436;2024-03-23T15:51:28;3.15;;;0.73;;
71969;SDS011;59838;52.152;5.436;2024-03-23T15:53:58;5.47;;;0.40;;